• Join FlightAware (Why Join?)
  • Login
  • US Flag 
05:39PM EDT


 

Airport Tracker/Info


-or-


 

Live Flight TrackerFlight Track Log ✈ SWA3681 ✈ 23-Apr-2013 ✈ KELP - KLAS

Flight Track Log - Related Links

Times and Time Zones

All times are in EDT time to prevent confusion due to time zone crossing. See the SWA3681 flight status page for this flight to view local times or setup timezone preferences in your user account.

Time Position Orientation Groundspeed Altitude Reporting Facility
EDT Latitude Longitude Course Direction KTS MPH feet Rate Location/Type
10:53AM 31.7803 -106.4458 246° West 217 250 6,200  Level Albuquerque Center
10:54AM 31.7672 -106.5164 258° West 257 296 8,800 2,460 Climbing Albuquerque Center
10:55AM 31.7989 -106.5706 305° West 241 277 10,800 1,380 Climbing Albuquerque Center
10:56AM 31.8500 -106.6528 306° West 312 359 11,500 1,380 Climbing Albuquerque Center
10:57AM 31.9144 -106.7417 311° West 355 409 13,700 2,220 Climbing Albuquerque Center
10:58AM 31.9819 -106.8364 310° West 366 421 16,100 2,220 Climbing Albuquerque Center
10:59AM 32.0503 -106.9300 311° West 380 437 18,300 1,980 Climbing Albuquerque Center
11:00AM 32.1261 -107.0192 315° West 383 441 20,200 1,920 Climbing Albuquerque Center
11:01AM 32.2189 -107.1236 316° Northwest 391 450 22,300 1,800 Climbing Albuquerque Center
11:02AM 32.2950 -107.2078 317° Northwest 403 464 24,000 1,620 Climbing Albuquerque Center
11:03AM 32.3742 -107.3014 315° West 405 466 25,700 1,560 Climbing Albuquerque Center
11:04AM 32.4722 -107.4125 316° Northwest 410 472 27,300 1,740 Climbing Albuquerque Center
11:05AM 32.5564 -107.5042 317° Northwest 414 476 29,300 1,680 Climbing Albuquerque Center
11:06AM 32.6419 -107.5894 320° Northwest 408 470 30,800 1,500 Climbing Albuquerque Center
11:07AM 32.7275 -107.6733 320° Northwest 402 463 32,500 1,320 Climbing Albuquerque Center
11:08AM 32.8106 -107.7561 320° Northwest 393 452 33,600 840 Climbing Albuquerque Center
11:09AM 32.8939 -107.8392 320° Northwest 391 450 34,300 960 Climbing Albuquerque Center
11:10AM 32.9947 -107.9397 320° Northwest 393 452 35,600 780 Climbing Albuquerque Center
11:11AM 33.0783 -108.0231 320° Northwest 391 450 36,000 180 Climbing Albuquerque Center
11:12AM 33.1625 -108.1078 320° Northwest 394 453 36,000  Level Albuquerque Center
11:13AM 33.2372 -108.1858 319° Northwest 394 453 36,000  Level Albuquerque Center
11:14AM 33.3197 -108.3017 310° West 388 447 36,000  Level Albuquerque Center
11:15AM 33.3886 -108.3967 311° West 385 443 36,000  Level Albuquerque Center
11:16AM 33.4569 -108.4914 311° West 383 441 36,000  Level Albuquerque Center
11:17AM 33.5239 -108.5847 311° West 377 434 36,000  Level Albuquerque Center
11:18AM 33.6047 -108.6969 311° West 375 432 36,000  Level Albuquerque Center
11:19AM 33.6731 -108.7933 310° West 381 438 36,000  Level Albuquerque Center
11:20AM 33.7400 -108.8883 310° West 379 436 36,000  Level Albuquerque Center
11:21AM 33.8067 -108.9822 311° West 376 433 36,000  Level Albuquerque Center
11:22AM 33.8872 -109.0958 311° West 376 433 36,000  Level Albuquerque Center
11:23AM 33.9539 -109.1892 311° West 374 430 36,000  Level Albuquerque Center
11:24AM 34.0203 -109.2850 310° West 375 432 36,000  Level Albuquerque Center
11:26AM 34.0858 -109.3769 311° West 370 426 36,000  Level Albuquerque Center
11:27AM 34.1592 -109.4800 311° West 368 423 36,000  Level Albuquerque Center
11:28AM 34.2331 -109.5878 310° West 370 426 36,000  Level Albuquerque Center
11:29AM 34.2986 -109.6803 311° West 375 432 36,000  Level Albuquerque Center
11:30AM 34.3733 -109.7886 310° West 375 432 36,100  Climbing Albuquerque Center
11:31AM 34.4369 -109.8792 310° West 371 427 36,000 -60 Descending Albuquerque Center
11:32AM 34.5019 -109.9725 310° West 374 430 36,000  Level Albuquerque Center
11:33AM 34.5772 -110.0811 310° West 375 432 36,000  Level Albuquerque Center
11:34AM 34.6433 -110.1794 309° West 384 442 36,000  Level Albuquerque Center
11:35AM 34.7192 -110.2892 310° West 383 441 36,000  Level Albuquerque Center
11:36AM 34.7825 -110.3822 310° West 378 435 36,000  Level Albuquerque Center
11:37AM 34.8558 -110.4897 310° West 372 428 36,000  Level Albuquerque Center
11:38AM 34.9178 -110.5817 309° West 369 425 36,000  Level Albuquerque Center
11:39AM 34.9903 -110.6900 309° West 368 423 36,000  Level Albuquerque Center
11:40AM 35.0469 -110.7736 310° West 370 426 36,000  Level Albuquerque Center
11:41AM 35.1153 -110.9028 303° West 374 430 36,100  Climbing Albuquerque Center
11:42AM 35.1647 -111.0067 300° West 372 428 36,000 -300 Descending Albuquerque Center
11:43AM 35.2200 -111.1217 300° West 380 437 35,600 -720 Descending Albuquerque Center
11:44AM 35.2742 -111.2297 302° West 378 435 34,600 -1,020 Descending Albuquerque Center
11:45AM 35.3267 -111.3361 301° West 364 419 33,600 -1,020 Descending Albuquerque Center
11:46AM 35.3750 -111.4361 301° West 356 410 32,600 -1,020 Descending Albuquerque Center
11:47AM 35.4386 -111.5664 301° West 364 419 31,500 -960 Descending Albuquerque Center
11:48AM 35.4892 -111.6739 300° West 366 421 30,700 -780 Descending Albuquerque Center
11:49AM 35.5414 -111.7839 300° West 370 426 30,000 -300 Descending Albuquerque Center
11:50AM 35.5908 -111.8972 298° West 377 434 30,100  Climbing Albuquerque Center
11:51AM 35.5964 -112.0236 273° West 373 429 30,100  Level Albuquerque Center
11:52AM 35.5972 -112.1719 270° West 368 423 30,100  Level Albuquerque Center
11:53AM 35.6014 -112.2964 272° West 367 422 30,100 -60 Level Albuquerque Center
11:55AM 35.6056 -112.4467 272° West 366 421 30,000  Descending Los Angeles Center
11:56AM 35.6081 -112.5717 271° West 369 425 30,100  Climbing Los Angeles Center
11:57AM 35.6111 -112.7194 271° West 365 420 30,100  Level Los Angeles Center
11:58AM 35.6139 -112.8461 272° West 369 425 30,100  Level Los Angeles Center
11:59AM 35.6153 -112.9647 271° West 375 432 30,100  Level Los Angeles Center
12:00PM 35.6167 -113.0925 271° West 375 432 30,100  Level Los Angeles Center
12:01PM 35.6208 -113.2447 272° West 370 426 30,100 -240 Level Los Angeles Center
12:02PM 35.6225 -113.3733 271° West 374 430 29,600 -1,440 Descending Los Angeles Center
12:03PM 35.6239 -113.5019 271° West 378 435 27,200 -2,340 Descending Los Angeles Center
12:04PM 35.6356 -113.6233 277° West 366 421 24,800 -1,920 Descending Los Angeles Center
12:05PM 35.6519 -113.7364 280° West 346 398 23,300 -1,740 Descending Los Angeles Center
12:06PM 35.6689 -113.8503 280° West 340 391 21,300 -2,040 Descending Los Angeles Center
12:07PM 35.6839 -113.9606 280° West 333 383 19,100 -2,160 Descending Los Angeles Center
12:08PM 35.7014 -114.0886 280° West 319 367 16,900 -2,280 Descending Los Angeles Center
12:09PM 35.7211 -114.2028 282° West 337 388 14,600 -2,160 Descending Los Angeles Center
12:10PM 35.7333 -114.3119 278° West 329 379 12,500 -1,380 Descending Los Angeles Center
12:11PM 35.7414 -114.4114 276° West 295 339 11,700 -660 Descending Los Angeles Center
12:12PM 35.7431 -114.5300 271° West 267 307 11,100 -360 Descending Los Angeles Center
12:13PM 35.7417 -114.5911 268° West 261 300 11,000  Descending Los Angeles Center
12:14PM 35.7417 -114.6856 270° West 233 268 11,100  Climbing Los Angeles Center
12:15PM 35.7400 -114.7592 268° West 223 257 11,100 -360 Level Los Angeles Center
12:16PM 35.7150 -114.8314 247° West 222 255 10,400 -960 Descending Los Angeles Center
12:17PM 35.6911 -114.9036 248° West 225 259 9,100 -660 Descending Los Angeles Center
12:18PM 35.6881 -114.9936 268° West 232 267 9,100  Level Los Angeles Center
12:20PM 35.6836 -115.0825 267° West 227 261 9,100  Level Los Angeles Center
12:20PM 35.6900 -115.1558 276° West 231 266 9,100  Level Los Angeles Center
12:22PM 35.6997 -115.2394 278° West 237 273 9,100 -180 Level Los Angeles Center
12:23PM 35.7483 -115.2717 332° Northwest 232 267 8,800 -540 Descending Los Angeles Center
12:24PM 35.8153 -115.2803 354° North 229 264 8,100 -360 Descending Los Angeles Center
12:25PM 35.8767 -115.2842 357° North 221 254 8,100 -780 Level Los Angeles Center
12:25PM 35.9258 -115.2522 28° Northeast 215 247 6,700 -1,620 Descending Los Angeles Center
12:27PM 35.9761 -115.2250 24° Northeast 198 228 5,000 -1,680 Descending Los Angeles Center
12:28PM 36.0264 -115.1978 24° Northeast 194 223 3,400 -1,320 Descending Los Angeles Center
12:28PM 36.0417 -115.1875 29° Northeast 133 153 3,200 -780 Descending Los Angeles Center
12:28PM 36.0611 -115.1786 20° North 149 171 2,700 -420 Descending Los Angeles Center
12:29PM 36.0739 -115.1689 32° Northeast 140 161 2,800 180 Climbing Los Angeles Center